createdAt,value
2022-11-17T00:00:00.093Z,100360.88
2022-11-17T00:02:28.049Z,100343.81
2022-11-17T00:04:55.987Z,100364.91
2022-11-17T00:07:24.032Z,100358.28
2022-11-17T00:09:51.929Z,100352.50
2022-11-17T00:12:48.576Z,100356.66
2022-11-17T00:15:18.196Z,100342.56
2022-11-17T00:17:47.895Z,100335.94
2022-11-17T00:20:33.564Z,100337.34
2022-11-17T00:23:01.482Z,100333.50
2022-11-17T00:25:29.416Z,100336.19
2022-11-17T00:27:57.324Z,100345.63
2022-11-17T00:30:44.108Z,100349.63
2022-11-17T00:33:29.607Z,100344.00
2022-11-17T00:35:57.549Z,100377.16
2022-11-17T00:38:25.443Z,100345.91
2022-11-17T00:40:53.356Z,100328.47
2022-11-17T00:43:21.319Z,100331.06
2022-11-17T00:45:50.653Z,100330.03
2022-11-17T00:48:18.587Z,100336.22
2022-11-17T00:50:46.463Z,100319.53
2022-11-17T00:53:14.396Z,100314.19
2022-11-17T00:55:44.000Z,100322.44
2022-11-17T00:58:12.021Z,100339.16
2022-11-17T01:00:40.285Z,100328.28
2022-11-17T01:03:09.606Z,100333.16
2022-11-17T01:05:37.524Z,100331.25
2022-11-17T01:08:05.792Z,100331.66
2022-11-17T01:10:35.805Z,100316.22
2022-11-17T01:13:04.202Z,100336.09
2022-11-17T01:15:32.074Z,100330.03
2022-11-17T01:18:00.083Z,100333.16
2022-11-17T01:20:29.654Z,100345.38
2022-11-17T01:22:57.646Z,100327.66
2022-11-17T01:25:25.576Z,100331.94
2022-11-17T01:27:53.591Z,100329.03
2022-11-17T01:30:21.703Z,100340.78
2022-11-17T01:32:49.639Z,100316.78
2022-11-17T01:35:17.560Z,100318.66
2022-11-17T01:37:46.871Z,100322.53
2022-11-17T01:40:15.094Z,100311.88
2022-11-17T01:42:43.021Z,100307.00
2022-11-17T01:45:22.154Z,100309.97
2022-11-17T01:47:53.663Z,100294.44
2022-11-17T01:50:28.104Z,100296.19
2022-11-17T01:53:00.663Z,100297.69
2022-11-17T01:55:35.281Z,100302.16
2022-11-17T01:58:06.874Z,100298.66
2022-11-17T02:00:34.843Z,100289.38
2022-11-17T02:03:07.100Z,100292.41
2022-11-17T02:05:44.354Z,100301.09
2022-11-17T02:08:14.271Z,100298.47
2022-11-17T02:10:48.577Z,100307.50
2022-11-17T02:13:20.273Z,100297.97
2022-11-17T02:15:48.449Z,100304.63
2022-11-17T02:18:17.520Z,100295.66
2022-11-17T02:20:55.420Z,100289.38
2022-11-17T02:23:51.226Z,100294.97
2022-11-17T02:26:41.879Z,100291.34
2022-11-17T02:29:20.881Z,100288.84
2022-11-17T02:31:58.154Z,100315.41
2022-11-17T02:34:39.325Z,100287.06
2022-11-17T02:37:17.244Z,100287.59
2022-11-17T02:39:51.140Z,100288.34
2022-11-17T02:42:46.873Z,100285.66
2022-11-17T02:45:20.933Z,100282.50
2022-11-17T02:47:51.784Z,100273.69
2022-11-17T02:50:26.803Z,100284.34
2022-11-17T02:52:56.362Z,100278.31
2022-11-17T02:55:24.361Z,100267.25
2022-11-17T02:57:52.273Z,100260.22
2022-11-17T03:00:22.031Z,100254.06
2022-11-17T03:03:10.297Z,100250.97
2022-11-17T03:05:47.809Z,100251.53
2022-11-17T03:08:32.935Z,100269.72
2022-11-17T03:11:03.773Z,100251.28
2022-11-17T03:13:41.524Z,100252.41
2022-11-17T03:16:18.234Z,100255.38
2022-11-17T03:18:57.835Z,100255.19
2022-11-17T03:21:32.702Z,100251.38
2022-11-17T03:24:06.792Z,100247.91
2022-11-17T03:26:37.539Z,100243.09
2022-11-17T03:29:10.892Z,100270.59
2022-11-17T03:31:42.040Z,100255.19
2022-11-17T03:34:14.553Z,100254.94
2022-11-17T03:36:48.446Z,100253.50
2022-11-17T03:39:23.665Z,100274.19
2022-11-17T03:41:55.254Z,100259.31
2022-11-17T03:44:26.003Z,100254.41
2022-11-17T03:46:56.687Z,100257.97
2022-11-17T03:49:34.078Z,100253.38
2022-11-17T03:52:02.276Z,100249.59
2022-11-17T03:54:30.207Z,100246.72
2022-11-17T03:57:03.917Z,100248.69
2022-11-17T03:59:38.560Z,100246.44
2022-11-17T04:02:07.932Z,100254.50
2022-11-17T04:04:49.746Z,100249.78
2022-11-17T04:07:17.767Z,100238.00
2022-11-17T04:09:45.705Z,100252.94
2022-11-17T04:12:30.979Z,100250.13
2022-11-17T04:15:16.441Z,100252.88
2022-11-17T04:17:45.790Z,100244.69
2022-11-17T04:20:13.714Z,100231.66
2022-11-17T04:22:41.627Z,100225.56
2022-11-17T04:25:30.345Z,100228.78
2022-11-17T04:28:15.632Z,100242.38
2022-11-17T04:30:43.525Z,100220.72
2022-11-17T04:33:12.821Z,100225.59
2022-11-17T04:35:40.860Z,100225.50
2022-11-17T04:38:08.820Z,100225.78
2022-11-17T04:40:56.791Z,100228.13
2022-11-17T04:43:23.785Z,100212.81
2022-11-17T04:45:51.669Z,100225.13
2022-11-17T04:48:20.951Z,100227.91
2022-11-17T04:50:48.859Z,100219.78
2022-11-17T04:53:16.781Z,100224.50
2022-11-17T04:55:44.719Z,100215.00
2022-11-17T04:58:12.678Z,100208.41
2022-11-17T05:00:40.627Z,100215.81
2022-11-17T05:03:08.881Z,100210.31
2022-11-17T05:05:38.186Z,100223.19
2022-11-17T05:08:06.387Z,100219.28
2022-11-17T05:10:51.754Z,100218.78
2022-11-17T05:13:26.198Z,100217.78
2022-11-17T05:16:12.299Z,100218.13
2022-11-17T05:18:40.407Z,100194.91
2022-11-17T05:21:11.859Z,100194.09
2022-11-17T05:23:56.673Z,100200.78
2022-11-17T05:26:26.546Z,100189.56
2022-11-17T05:28:56.793Z,100201.50
2022-11-17T05:31:25.063Z,100207.94
2022-11-17T05:33:53.740Z,100192.97
2022-11-17T05:36:24.382Z,100189.13
2022-11-17T05:38:52.807Z,100178.50
2022-11-17T05:41:21.441Z,100183.69
2022-11-17T05:43:50.428Z,100170.47
2022-11-17T05:46:19.951Z,100177.81
2022-11-17T05:48:48.787Z,100176.63
2022-11-17T05:51:17.750Z,100181.56
2022-11-17T05:53:47.182Z,100195.28
2022-11-17T05:56:34.369Z,100177.06
2022-11-17T05:59:11.299Z,100169.44
2022-11-17T06:01:44.866Z,100170.78
2022-11-17T06:04:17.807Z,100181.81
2022-11-17T06:06:47.603Z,100183.13
2022-11-17T06:09:17.630Z,100174.94
2022-11-17T06:11:45.561Z,100180.78
2022-11-17T06:14:13.482Z,100178.94
2022-11-17T06:16:45.887Z,100170.50
2022-11-17T06:19:19.766Z,100162.66
2022-11-17T06:22:10.538Z,100165.63
2022-11-17T06:24:38.852Z,100164.69
2022-11-17T06:27:06.982Z,100160.84
2022-11-17T06:29:38.259Z,100178.03
2022-11-17T06:32:08.939Z,100167.31
2022-11-17T06:34:37.559Z,100157.97
2022-11-17T06:37:05.479Z,100160.09
2022-11-17T06:39:33.454Z,100164.34
2022-11-17T06:42:02.746Z,100164.34
2022-11-17T06:44:30.795Z,100162.25
2022-11-17T06:46:58.696Z,100154.94
2022-11-17T06:49:26.629Z,100155.72
2022-11-17T06:51:54.549Z,100142.50
2022-11-17T06:54:22.432Z,100152.25
2022-11-17T06:56:52.385Z,100141.31
2022-11-17T06:59:21.617Z,100150.50
2022-11-17T07:01:49.505Z,100137.34
2022-11-17T07:04:17.368Z,100136.56
2022-11-17T07:06:45.418Z,100129.84
2022-11-17T07:09:13.374Z,100142.03
2022-11-17T07:11:41.344Z,100140.47
2022-11-17T07:14:09.389Z,100127.63
2022-11-17T07:16:38.927Z,100117.97
2022-11-17T07:19:08.300Z,100120.63
2022-11-17T07:21:36.215Z,100131.44
2022-11-17T07:24:04.596Z,100128.78
2022-11-17T07:26:32.540Z,100123.38
2022-11-17T07:29:00.435Z,100127.00
2022-11-17T07:31:28.496Z,100119.31
2022-11-17T07:33:57.906Z,100118.56
2022-11-17T07:36:25.913Z,100122.59
2022-11-17T07:38:53.862Z,100125.88
2022-11-17T07:41:21.934Z,100152.44
2022-11-17T07:43:49.868Z,100140.56
2022-11-17T07:46:17.856Z,100146.63
2022-11-17T07:48:45.972Z,100138.97
2022-11-17T07:51:17.170Z,100144.91
2022-11-17T07:53:45.114Z,100135.91
2022-11-17T07:56:13.404Z,100140.91
2022-11-17T07:58:42.243Z,100146.22
2022-11-17T08:01:12.031Z,100135.06
2022-11-17T08:03:40.062Z,100132.03
2022-11-17T08:06:10.052Z,100130.13
2022-11-17T08:08:40.327Z,100125.28
2022-11-17T08:11:10.820Z,100134.84
2022-11-17T08:13:40.068Z,100124.34
2022-11-17T08:16:08.845Z,100112.91
2022-11-17T08:18:37.452Z,100111.81
2022-11-17T08:21:07.462Z,100111.81
2022-11-17T08:23:35.954Z,100114.72
2022-11-17T08:26:07.149Z,100110.28
2022-11-17T08:28:35.737Z,100108.03
2022-11-17T08:31:04.994Z,100110.63
2022-11-17T08:33:33.174Z,100122.84
2022-11-17T08:36:02.211Z,100109.47
2022-11-17T08:38:30.712Z,100113.31
2022-11-17T08:40:59.417Z,100115.94
2022-11-17T08:43:29.027Z,100111.91
2022-11-17T08:45:57.273Z,100099.34
2022-11-17T08:48:25.540Z,100094.00
2022-11-17T08:50:53.567Z,100086.66
2022-11-17T08:53:23.368Z,100098.19
2022-11-17T08:55:52.698Z,100099.06
2022-11-17T08:58:20.699Z,100092.16
2022-11-17T09:00:50.077Z,100103.75
2022-11-17T09:03:18.078Z,100102.44
2022-11-17T09:05:48.347Z,100099.75
2022-11-17T09:08:43.972Z,100090.25
2022-11-17T09:11:06.811Z,100127.63
2022-11-17T09:13:35.251Z,100119.63
2022-11-17T09:16:05.183Z,100112.19
2022-11-17T09:18:33.775Z,100112.81
2022-11-17T09:21:02.282Z,100124.66
2022-11-17T09:23:31.665Z,100112.72
2022-11-17T09:26:00.332Z,100122.91
2022-11-17T09:28:28.462Z,100141.97
2022-11-17T09:30:56.483Z,100122.88
2022-11-17T09:33:26.063Z,100124.28
2022-11-17T09:35:57.993Z,100145.47
2022-11-17T09:38:25.985Z,100127.19
2022-11-17T09:40:55.214Z,100120.19
2022-11-17T09:43:30.082Z,100115.25
2022-11-17T09:46:07.549Z,100109.56
2022-11-17T09:48:45.342Z,100107.09
2022-11-17T09:51:17.951Z,100107.56
2022-11-17T09:53:52.058Z,100100.97
2022-11-17T09:56:20.183Z,100100.03
2022-11-17T09:58:52.165Z,100109.47
2022-11-17T10:01:22.278Z,100095.50
2022-11-17T10:03:53.590Z,100109.25
2022-11-17T10:06:22.918Z,100109.16
2022-11-17T10:09:00.383Z,100109.53
2022-11-17T10:11:35.014Z,100104.97
2022-11-17T10:14:11.828Z,100108.38
2022-11-17T10:16:41.913Z,100113.38
2022-11-17T10:19:17.901Z,100110.03
2022-11-17T10:21:48.482Z,100105.47
2022-11-17T10:24:34.704Z,100095.50
2022-11-17T10:27:04.170Z,100089.56
2022-11-17T10:29:32.191Z,100094.81
2022-11-17T10:32:01.711Z,100085.72
2022-11-17T10:34:40.995Z,100086.03
2022-11-17T10:37:26.006Z,100078.31
2022-11-17T10:40:08.232Z,100073.72
2022-11-17T10:42:36.688Z,100075.88
2022-11-17T10:45:04.923Z,100072.66
2022-11-17T10:47:38.611Z,100068.63
2022-11-17T10:50:18.721Z,100066.38
2022-11-17T10:52:46.751Z,100073.66
2022-11-17T10:55:24.944Z,100072.34
2022-11-17T10:57:56.487Z,100067.13
2022-11-17T11:00:28.055Z,100053.94
2022-11-17T11:03:17.695Z,100056.47
2022-11-17T11:06:06.732Z,100052.94
2022-11-17T11:08:45.976Z,100050.25
2022-11-17T11:11:36.690Z,100054.22
2022-11-17T11:14:14.098Z,100036.03
2022-11-17T11:16:47.842Z,100037.81
2022-11-17T11:19:18.248Z,100042.81
2022-11-17T11:22:21.577Z,100045.50
2022-11-17T11:24:56.161Z,100033.34
2022-11-17T11:27:49.589Z,100037.38
2022-11-17T11:30:19.313Z,100045.50
2022-11-17T11:33:04.933Z,100034.00
2022-11-17T11:35:49.306Z,100033.81
2022-11-17T11:38:31.529Z,100035.34
2022-11-17T11:41:13.104Z,100013.28
2022-11-17T11:43:50.463Z,100032.09
2022-11-17T11:46:25.028Z,100003.72
2022-11-17T11:48:58.212Z,100017.41
2022-11-17T11:51:30.699Z,100023.59
2022-11-17T11:54:07.468Z,100006.75
2022-11-17T11:56:39.498Z,100029.41
2022-11-17T11:59:13.591Z,100004.72
2022-11-17T12:01:48.670Z,99996.19
2022-11-17T12:04:31.746Z,100001.28
2022-11-17T12:07:07.306Z,99994.69
2022-11-17T12:09:57.103Z,99998.59
2022-11-17T12:12:31.871Z,99988.78
2022-11-17T12:15:32.609Z,99995.56
2022-11-17T12:18:03.962Z,100004.41
2022-11-17T12:21:01.556Z,100012.06
2022-11-17T12:23:44.185Z,99989.44
2022-11-17T12:26:26.713Z,100011.50
2022-11-17T12:29:33.986Z,99999.72
2022-11-17T12:32:03.643Z,100003.06
2022-11-17T12:34:35.448Z,99990.13
2022-11-17T12:37:26.229Z,99982.50
2022-11-17T12:40:02.712Z,99993.47
2022-11-17T12:42:33.374Z,99993.78
2022-11-17T12:45:07.357Z,99987.63
2022-11-17T12:47:37.082Z,99983.63
2022-11-17T12:50:21.332Z,99987.09
2022-11-17T12:53:02.681Z,100001.94
2022-11-17T12:55:53.702Z,100019.97
2022-11-17T12:58:30.798Z,99998.09
2022-11-17T13:01:10.287Z,99994.09
2022-11-17T13:03:46.645Z,99991.72
2022-11-17T13:09:12.903Z,99987.16
2022-11-17T13:12:00.046Z,99984.72
2022-11-17T13:14:32.358Z,99986.38
2022-11-17T13:17:01.970Z,99990.72
2022-11-17T13:19:37.568Z,99970.69
2022-11-17T13:22:15.022Z,99989.81
2022-11-17T13:24:45.292Z,99989.06
2022-11-17T13:27:22.776Z,99993.47
2022-11-17T13:29:52.727Z,99980.34
2022-11-17T13:32:23.824Z,99970.63
2022-11-17T13:34:56.455Z,99984.25
2022-11-17T13:37:26.111Z,99982.97
2022-11-17T13:39:59.412Z,99975.31
2022-11-17T13:42:28.654Z,99974.41
2022-11-17T13:45:00.736Z,99964.03
2022-11-17T13:47:42.565Z,99967.03
2022-11-17T13:50:37.206Z,99965.78
2022-11-17T13:53:18.026Z,99966.97
2022-11-17T13:55:47.678Z,99982.09
2022-11-17T13:58:36.318Z,99968.63
2022-11-17T14:01:06.142Z,99986.72
2022-11-17T14:03:37.174Z,99980.03
2022-11-17T14:06:08.247Z,100000.84
2022-11-17T14:08:37.424Z,99969.03
2022-11-17T14:11:15.388Z,99961.72
2022-11-17T14:13:46.253Z,99978.59
2022-11-17T14:16:25.032Z,99971.66
2022-11-17T14:18:59.178Z,99962.72
2022-11-17T14:21:27.856Z,99964.75
2022-11-17T14:24:13.024Z,99965.66
2022-11-17T14:26:45.692Z,99964.38
2022-11-17T14:29:14.690Z,99975.84
2022-11-17T14:31:44.409Z,99974.38
2022-11-17T14:34:13.041Z,99963.00
2022-11-17T14:36:41.920Z,99970.78
2022-11-17T14:39:15.951Z,99976.00
2022-11-17T14:41:45.190Z,99970.19
2022-11-17T14:44:13.451Z,99966.28
2022-11-17T14:46:41.504Z,99964.88
2022-11-17T14:49:11.132Z,99975.03
2022-11-17T14:51:39.397Z,99968.78
2022-11-17T14:54:07.443Z,99960.34
2022-11-17T14:56:36.050Z,99964.50
2022-11-17T14:59:04.106Z,99973.84
2022-11-17T15:01:34.635Z,99979.66
2022-11-17T15:04:20.765Z,99962.34
2022-11-17T15:06:50.950Z,99971.69
2022-11-17T15:09:20.712Z,99960.66
2022-11-17T15:11:48.997Z,99959.50
2022-11-17T15:14:17.168Z,99970.41
2022-11-17T15:16:45.438Z,99979.25
2022-11-17T15:19:13.467Z,99973.75
2022-11-17T15:21:41.502Z,99972.78
2022-11-17T15:24:10.922Z,99966.28
2022-11-17T15:26:38.937Z,99967.41
2022-11-17T15:29:06.993Z,99981.09
2022-11-17T15:31:34.960Z,99974.44
2022-11-17T15:34:03.375Z,99965.09
2022-11-17T15:36:32.949Z,99971.22
2022-11-17T15:39:01.169Z,99975.84
2022-11-17T15:41:33.152Z,99972.44
2022-11-17T15:44:02.173Z,99977.63
2022-11-17T15:46:30.538Z,99976.88
2022-11-17T15:48:58.682Z,99983.81
2022-11-17T15:51:28.844Z,99968.50
2022-11-17T15:53:58.781Z,99973.91
2022-11-17T15:56:28.118Z,99973.03
2022-11-17T15:58:58.858Z,99977.72
2022-11-17T16:01:32.059Z,99981.09
2022-11-17T16:04:01.067Z,99987.91
2022-11-17T16:06:29.653Z,99979.19
2022-11-17T16:08:58.654Z,99969.56
2022-11-17T16:11:27.767Z,99972.44
2022-11-17T16:13:58.091Z,99980.53
2022-11-17T16:16:27.647Z,99987.44
2022-11-17T16:18:55.763Z,99964.88
2022-11-17T16:21:24.117Z,99977.75
2022-11-17T16:23:54.646Z,99974.38
2022-11-17T16:26:24.357Z,99970.34
2022-11-17T16:28:58.827Z,99978.09
2022-11-17T16:31:28.797Z,99976.88
2022-11-17T16:33:58.392Z,99973.31
2022-11-17T16:36:31.388Z,99966.22
2022-11-17T16:39:03.879Z,99970.34
2022-11-17T16:41:33.877Z,99971.72
2022-11-17T16:44:04.586Z,99978.88
2022-11-17T16:46:33.226Z,99963.56
2022-11-17T16:49:07.168Z,99975.69
2022-11-17T16:51:36.161Z,99972.06
2022-11-17T16:54:06.239Z,99970.38
2022-11-17T16:56:35.360Z,99967.63
2022-11-17T16:59:04.926Z,99961.78
2022-11-17T17:01:34.787Z,99970.47
2022-11-17T17:04:05.205Z,99972.28
2022-11-17T17:06:37.240Z,99973.22
2022-11-17T17:09:07.341Z,99978.03
2022-11-17T17:11:36.740Z,99970.16
2022-11-17T17:14:08.597Z,99975.69
2022-11-17T17:16:38.931Z,99984.59
2022-11-17T17:19:09.034Z,99986.47
2022-11-17T17:21:38.252Z,99988.00
2022-11-17T17:24:07.349Z,99986.28
2022-11-17T17:26:37.286Z,99973.66
2022-11-17T17:29:09.830Z,99982.28
2022-11-17T17:31:39.546Z,99990.09
2022-11-17T17:34:08.998Z,99988.72
2022-11-17T17:36:38.462Z,99985.75
2022-11-17T17:39:07.350Z,99981.31
2022-11-17T17:41:39.609Z,99982.78
2022-11-17T17:44:15.286Z,99990.09
2022-11-17T17:46:43.921Z,99977.59
2022-11-17T17:49:12.744Z,99992.25
2022-11-17T17:51:44.101Z,99981.81
2022-11-17T17:54:17.035Z,99986.50
2022-11-17T17:56:45.730Z,99988.63
2022-11-17T17:59:15.960Z,99992.63
2022-11-17T18:01:46.446Z,99989.69
2022-11-17T18:04:16.527Z,99989.25
2022-11-17T18:06:47.881Z,100007.13
2022-11-17T18:09:19.541Z,100002.38
2022-11-17T18:11:49.848Z,99989.34
2022-11-17T18:14:24.465Z,99997.06
2022-11-17T18:16:53.263Z,99988.16
2022-11-17T18:19:22.181Z,99986.63
2022-11-17T18:21:50.302Z,99994.69
2022-11-17T18:24:18.555Z,99995.31
2022-11-17T18:26:46.878Z,99986.81
2022-11-17T18:29:20.360Z,99999.31
2022-11-17T18:31:50.574Z,100002.78
2022-11-17T18:34:21.071Z,99997.22
2022-11-17T18:36:52.760Z,99998.34
2022-11-17T18:39:21.460Z,100003.03
2022-11-17T18:41:49.734Z,99995.06
2022-11-17T18:44:19.805Z,100009.81
2022-11-17T18:46:49.633Z,99993.94
2022-11-17T18:49:18.053Z,100005.16
2022-11-17T18:51:49.041Z,99992.13
2022-11-17T18:54:17.256Z,100015.44
2022-11-17T18:56:45.448Z,100002.16
2022-11-17T18:59:14.206Z,100003.13
2022-11-17T19:01:43.721Z,100008.13
2022-11-17T19:04:18.449Z,100005.69
2022-11-17T19:06:46.682Z,100024.63
2022-11-17T19:09:16.222Z,100005.91
2022-11-17T19:11:46.460Z,100004.72
2022-11-17T19:14:14.504Z,100003.69
2022-11-17T19:16:44.763Z,100002.94
2022-11-17T19:19:15.357Z,100000.25
2022-11-17T19:21:43.990Z,99996.66
2022-11-17T19:24:12.022Z,99998.38
2022-11-17T19:26:40.092Z,99997.72
2022-11-17T19:29:16.033Z,100001.78
2022-11-17T19:31:45.169Z,100006.09
2022-11-17T19:34:14.745Z,99994.56
2022-11-17T19:36:42.982Z,100003.53
2022-11-17T19:39:15.103Z,99996.13
2022-11-17T19:41:44.945Z,99999.13
2022-11-17T19:44:15.368Z,99991.50
2022-11-17T19:46:43.488Z,99996.25
2022-11-17T19:49:14.363Z,100013.63
2022-11-17T19:51:42.526Z,100001.34
2022-11-17T19:54:11.081Z,100018.50
2022-11-17T19:56:41.760Z,100022.28
2022-11-17T19:59:18.656Z,100032.50
2022-11-17T20:01:47.032Z,100019.75
2022-11-17T20:04:16.529Z,100017.53
2022-11-17T20:06:44.611Z,100034.44
2022-11-17T20:09:15.062Z,100026.44
2022-11-17T20:11:43.591Z,100056.16
2022-11-17T20:14:11.737Z,100030.47
2022-11-17T20:16:39.842Z,100021.44
2022-11-17T20:19:08.128Z,100040.22
2022-11-17T20:21:37.460Z,100052.91
2022-11-17T20:24:05.807Z,100035.16
2022-11-17T20:26:36.113Z,100029.34
2022-11-17T20:29:04.226Z,100034.47
2022-11-17T20:31:34.180Z,100030.44
2022-11-17T20:34:03.925Z,100035.16
2022-11-17T20:36:33.976Z,100036.75
2022-11-17T20:39:05.432Z,100047.00
2022-11-17T20:41:33.464Z,100043.94
2022-11-17T20:44:03.137Z,100046.34
2022-11-17T20:46:31.441Z,100042.94
2022-11-17T20:48:59.436Z,100047.59
2022-11-17T20:51:27.549Z,100051.47
2022-11-17T20:53:55.546Z,100048.94
2022-11-17T20:56:24.913Z,100044.25
2022-11-17T20:58:53.102Z,100047.69
2022-11-17T21:01:23.896Z,100042.22
2022-11-17T21:03:52.111Z,100035.16
2022-11-17T21:06:22.926Z,100047.69
2022-11-17T21:08:51.499Z,100039.34
2022-11-17T21:11:35.094Z,100043.84
2022-11-17T21:14:05.925Z,100062.44
2022-11-17T21:16:34.789Z,100052.81
2022-11-17T21:19:02.784Z,100052.53
2022-11-17T21:21:30.881Z,100046.38
2022-11-17T21:23:59.635Z,100043.34
2022-11-17T21:26:28.792Z,100053.16
2022-11-17T21:29:00.487Z,100045.47
2022-11-17T21:31:33.181Z,100055.03
2022-11-17T21:34:02.698Z,100052.28
2022-11-17T21:36:32.169Z,100056.94
2022-11-17T21:39:00.797Z,100046.81
2022-11-17T21:41:30.261Z,100046.72
2022-11-17T21:44:01.861Z,100043.16
2022-11-17T21:46:33.235Z,100053.00
2022-11-17T21:49:02.257Z,100054.19
2022-11-17T21:51:33.380Z,100046.66
2022-11-17T21:54:03.363Z,100065.25
2022-11-17T21:56:32.177Z,100056.38
2022-11-17T21:59:01.878Z,100060.31
2022-11-17T22:01:30.667Z,100069.03
2022-11-17T22:04:00.416Z,100069.44
2022-11-17T22:06:28.999Z,100062.94
2022-11-17T22:08:57.790Z,100069.03
2022-11-17T22:11:37.350Z,100068.19
2022-11-17T22:14:08.581Z,100075.66
2022-11-17T22:16:38.074Z,100075.63
2022-11-17T22:19:07.923Z,100069.63
2022-11-17T22:21:36.558Z,100069.22
2022-11-17T22:24:04.977Z,100074.31
2022-11-17T22:26:35.937Z,100066.38
2022-11-17T22:29:04.234Z,100067.34
2022-11-17T22:31:32.166Z,100077.38
2022-11-17T22:34:00.785Z,100071.25
2022-11-17T22:36:30.147Z,100067.69
2022-11-17T22:38:58.381Z,100073.28
2022-11-17T22:41:26.325Z,100074.31
2022-11-17T22:43:55.992Z,100084.81
2022-11-17T22:46:26.759Z,100082.00
2022-11-17T22:48:54.832Z,100085.09
2022-11-17T22:51:36.793Z,100075.09
2022-11-17T22:54:06.597Z,100090.41
2022-11-17T22:56:34.777Z,100098.63
2022-11-17T22:59:02.855Z,100093.41
2022-11-17T23:01:30.883Z,100108.50
2022-11-17T23:03:59.286Z,100097.56
2022-11-17T23:06:28.467Z,100099.09
2022-11-17T23:08:58.097Z,100098.69
2022-11-17T23:11:43.381Z,100095.88
2022-11-17T23:14:12.985Z,100095.88
2022-11-17T23:16:41.728Z,100098.41
2022-11-17T23:19:13.384Z,100093.72
2022-11-17T23:21:41.972Z,100101.25
2022-11-17T23:24:12.815Z,100115.19
2022-11-17T23:26:43.480Z,100113.00
2022-11-17T23:29:11.762Z,100107.94
2022-11-17T23:31:39.728Z,100101.91
2022-11-17T23:34:09.573Z,100094.28
2022-11-17T23:36:37.643Z,100095.31
2022-11-17T23:39:05.968Z,100088.22
2022-11-17T23:41:34.162Z,100102.50
2022-11-17T23:44:03.718Z,100101.19
2022-11-17T23:46:31.716Z,100114.47
2022-11-17T23:48:59.683Z,100123.84
2022-11-17T23:51:29.872Z,100127.44
2022-11-17T23:53:59.909Z,100128.63
2022-11-17T23:56:28.078Z,100122.91
2022-11-17T23:58:55.974Z,100124.06
